sensor_id;sensor_type;location;lat;lon;timestamp;pressure;altitude;pressure_sealevel;temperature;humidity
12759;BME280;20944;47.048;15.390;2023-04-21T00:01:11;97497.28;;;8.99;100.00
12759;BME280;20944;47.048;15.390;2023-04-21T00:03:40;97500.63;;;9.04;100.00
12759;BME280;20944;47.048;15.390;2023-04-21T00:06:10;97497.16;;;9.04;100.00
12759;BME280;20944;47.048;15.390;2023-04-21T00:08:38;97488.53;;;9.00;100.00
12759;BME280;20944;47.048;15.390;2023-04-21T00:11:07;97485.06;;;8.98;100.00
12759;BME280;20944;47.048;15.390;2023-04-21T00:13:36;97487.53;;;9.04;100.00
12759;BME280;20944;47.048;15.390;2023-04-21T00:16:05;97486.03;;;8.96;100.00
12759;BME280;20944;47.048;15.390;2023-04-21T00:18:35;97485.06;;;8.98;100.00
12759;BME280;20944;47.048;15.390;2023-04-21T00:21:04;97463.47;;;8.91;100.00
12759;BME280;20944;47.048;15.390;2023-04-21T00:23:33;97478.09;;;9.00;100.00
12759;BME280;20944;47.048;15.390;2023-04-21T00:26:01;97448.16;;;8.76;100.00
12759;BME280;20944;47.048;15.390;2023-04-21T00:28:29;97477.44;;;8.90;100.00
12759;BME280;20944;47.048;15.390;2023-04-21T00:30:58;97482.59;;;8.92;100.00
12759;BME280;20944;47.048;15.390;2023-04-21T00:33:26;97480.84;;;8.94;100.00
12759;BME280;20944;47.048;15.390;2023-04-21T00:35:56;97460.28;;;8.80;100.00
12759;BME280;20944;47.048;15.390;2023-04-21T00:38:25;97487.16;;;8.84;100.00
12759;BME280;20944;47.048;15.390;2023-04-21T00:40:54;97440.00;;;8.53;100.00
12759;BME280;20944;47.048;15.390;2023-04-21T00:43:22;97477.94;;;8.69;100.00
12759;BME280;20944;47.048;15.390;2023-04-21T00:45:51;97470.91;;;8.71;100.00
12759;BME280;20944;47.048;15.390;2023-04-21T00:48:20;97465.06;;;8.60;100.00
12759;BME280;20944;47.048;15.390;2023-04-21T00:50:48;97466.06;;;8.56;100.00
12759;BME280;20944;47.048;15.390;2023-04-21T00:53:18;97459.78;;;8.63;100.00
12759;BME280;20944;47.048;15.390;2023-04-21T00:55:49;97446.59;;;8.69;100.00
12759;BME280;20944;47.048;15.390;2023-04-21T00:58:17;97460.41;;;8.74;100.00
12759;BME280;20944;47.048;15.390;2023-04-21T01:00:46;97455.63;;;8.54;100.00
12759;BME280;20944;47.048;15.390;2023-04-21T01:03:14;97459.16;;;8.52;100.00
12759;BME280;20944;47.048;15.390;2023-04-21T01:05:43;97462.84;;;8.43;100.00
12759;BME280;20944;47.048;15.390;2023-04-21T01:08:13;97464.56;;;8.44;100.00
12759;BME280;20944;47.048;15.390;2023-04-21T01:10:43;97474.16;;;8.42;100.00
12759;BME280;20944;47.048;15.390;2023-04-21T01:13:11;97461.50;;;8.24;100.00
12759;BME280;20944;47.048;15.390;2023-04-21T01:15:40;97464.00;;;8.30;100.00
12759;BME280;20944;47.048;15.390;2023-04-21T01:18:08;97457.22;;;8.20;100.00
12759;BME280;20944;47.048;15.390;2023-04-21T01:20:37;97466.47;;;8.34;100.00
12759;BME280;20944;47.048;15.390;2023-04-21T01:23:07;97461.25;;;8.34;100.00
12759;BME280;20944;47.048;15.390;2023-04-21T01:25:35;97468.22;;;8.34;100.00
12759;BME280;20944;47.048;15.390;2023-04-21T01:28:04;97470.78;;;8.38;100.00
12759;BME280;20944;47.048;15.390;2023-04-21T01:30:32;97464.63;;;8.41;100.00
12759;BME280;20944;47.048;15.390;2023-04-21T01:33:01;97468.84;;;8.47;100.00
12759;BME280;20944;47.048;15.390;2023-04-21T01:35:29;97471.47;;;8.47;100.00
12759;BME280;20944;47.048;15.390;2023-04-21T01:37:58;97462.91;;;8.40;100.00
12759;BME280;20944;47.048;15.390;2023-04-21T01:40:28;97472.56;;;8.35;100.00
12759;BME280;20944;47.048;15.390;2023-04-21T01:42:57;97389.25;;;7.84;100.00
12759;BME280;20944;47.048;15.390;2023-04-21T01:45:25;97466.38;;;8.41;100.00
12759;BME280;20944;47.048;15.390;2023-04-21T01:47:53;97467.03;;;8.50;100.00
12759;BME280;20944;47.048;15.390;2023-04-21T01:50:22;97468.69;;;8.54;100.00
12759;BME280;20944;47.048;15.390;2023-04-21T01:52:50;97458.66;;;8.34;100.00
12759;BME280;20944;47.048;15.390;2023-04-21T01:55:19;97467.34;;;8.36;100.00
12759;BME280;20944;47.048;15.390;2023-04-21T01:57:49;97469.09;;;8.34;100.00
12759;BME280;20944;47.048;15.390;2023-04-21T02:00:17;97470.03;;;8.32;100.00
12759;BME280;20944;47.048;15.390;2023-04-21T02:02:46;97462.19;;;8.32;100.00
12759;BME280;20944;47.048;15.390;2023-04-21T02:05:14;97462.25;;;8.29;100.00
12759;BME280;20944;47.048;15.390;2023-04-21T02:07:42;97454.50;;;8.26;100.00
12759;BME280;20944;47.048;15.390;2023-04-21T02:10:11;97448.50;;;8.21;100.00
12759;BME280;20944;47.048;15.390;2023-04-21T02:12:40;97427.88;;;8.08;100.00
12759;BME280;20944;47.048;15.390;2023-04-21T02:15:10;97462.13;;;8.36;100.00
12759;BME280;20944;47.048;15.390;2023-04-21T02:17:39;97449.91;;;8.38;100.00
12759;BME280;20944;47.048;15.390;2023-04-21T02:20:11;97459.44;;;8.40;100.00
12759;BME280;20944;47.048;15.390;2023-04-21T02:22:39;97459.31;;;8.46;100.00
12759;BME280;20944;47.048;15.390;2023-04-21T02:25:08;97459.22;;;8.50;100.00
12759;BME280;20944;47.048;15.390;2023-04-21T02:27:36;97475.66;;;8.54;100.00
12759;BME280;20944;47.048;15.390;2023-04-21T02:30:06;97466.19;;;8.48;100.00
12759;BME280;20944;47.048;15.390;2023-04-21T02:32:36;97471.63;;;8.39;100.00
12759;BME280;20944;47.048;15.390;2023-04-21T02:35:05;97457.78;;;8.35;100.00
12759;BME280;20944;47.048;15.390;2023-04-21T02:37:34;97366.72;;;7.81;100.00
12759;BME280;20944;47.048;15.390;2023-04-21T02:40:03;97462.00;;;8.41;100.00
12759;BME280;20944;47.048;15.390;2023-04-21T02:42:32;97463.88;;;8.36;100.00
12759;BME280;20944;47.048;15.390;2023-04-21T02:45:00;97465.69;;;8.31;100.00
12759;BME280;20944;47.048;15.390;2023-04-21T02:47:29;97463.13;;;8.28;100.00
12759;BME280;20944;47.048;15.390;2023-04-21T02:49:59;97443.28;;;8.21;100.00
12759;BME280;20944;47.048;15.390;2023-04-21T02:52:27;97463.09;;;8.31;100.00
12759;BME280;20944;47.048;15.390;2023-04-21T02:54:56;97457.66;;;8.42;100.00
12759;BME280;20944;47.048;15.390;2023-04-21T02:57:24;97464.66;;;8.40;100.00
12759;BME280;20944;47.048;15.390;2023-04-21T02:59:52;97441.34;;;8.29;100.00
12759;BME280;20944;47.048;15.390;2023-04-21T03:02:21;97458.78;;;8.28;100.00
12759;BME280;20944;47.048;15.390;2023-04-21T03:04:49;97426.09;;;8.10;100.00
12759;BME280;20944;47.048;15.390;2023-04-21T03:07:20;97452.78;;;8.23;100.00
12759;BME280;20944;47.048;15.390;2023-04-21T03:09:48;97452.97;;;8.16;100.00
12759;BME280;20944;47.048;15.390;2023-04-21T03:12:17;97456.28;;;8.22;100.00
12759;BME280;20944;47.048;15.390;2023-04-21T03:14:45;97450.19;;;8.23;100.00
12759;BME280;20944;47.048;15.390;2023-04-21T03:17:13;97432.13;;;8.14;100.00
12759;BME280;20944;47.048;15.390;2023-04-21T03:19:42;97416.84;;;7.96;100.00
12759;BME280;20944;47.048;15.390;2023-04-21T03:22:10;97399.56;;;7.90;100.00
12759;BME280;20944;47.048;15.390;2023-04-21T03:24:40;97434.69;;;8.17;100.00
12759;BME280;20944;47.048;15.390;2023-04-21T03:27:08;97296.41;;;7.35;100.00
12759;BME280;20944;47.048;15.390;2023-04-21T03:29:37;97447.47;;;8.28;100.00
12759;BME280;20944;47.048;15.390;2023-04-21T03:32:05;97453.53;;;8.30;100.00
12759;BME280;20944;47.048;15.390;2023-04-21T03:34:33;97442.91;;;8.39;100.00
12759;BME280;20944;47.048;15.390;2023-04-21T03:37:02;97446.34;;;8.41;100.00
12759;BME280;20944;47.048;15.390;2023-04-21T03:39:30;97453.63;;;8.25;100.00
12759;BME280;20944;47.048;15.390;2023-04-21T03:42:00;97427.53;;;8.25;100.00
12759;BME280;20944;47.048;15.390;2023-04-21T03:44:28;97446.53;;;8.32;100.00
12759;BME280;20944;47.048;15.390;2023-04-21T03:46:57;97434.69;;;8.16;100.00
12759;BME280;20944;47.048;15.390;2023-04-21T03:49:25;97455.59;;;8.14;100.00
12759;BME280;20944;47.048;15.390;2023-04-21T03:51:53;97452.13;;;8.14;100.00
12759;BME280;20944;47.048;15.390;2023-04-21T03:54:22;97449.44;;;8.17;100.00
12759;BME280;20944;47.048;15.390;2023-04-21T03:56:50;97454.06;;;8.05;100.00
12759;BME280;20944;47.048;15.390;2023-04-21T03:59:20;97462.75;;;8.04;100.00
12759;BME280;20944;47.048;15.390;2023-04-21T04:01:48;97458.47;;;8.02;100.00
12759;BME280;20944;47.048;15.390;2023-04-21T04:04:17;97459.16;;;8.11;100.00
12759;BME280;20944;47.048;15.390;2023-04-21T04:06:46;97456.47;;;8.15;100.00
12759;BME280;20944;47.048;15.390;2023-04-21T04:09:14;97432.47;;;7.97;100.00
12759;BME280;20944;47.048;15.390;2023-04-21T04:11:43;97458.13;;;8.19;100.00
12759;BME280;20944;47.048;15.390;2023-04-21T04:14:11;97464.25;;;8.18;100.00
12759;BME280;20944;47.048;15.390;2023-04-21T04:16:41;97451.25;;;8.15;100.00
12759;BME280;20944;47.048;15.390;2023-04-21T04:19:09;97445.81;;;8.25;100.00
12759;BME280;20944;47.048;15.390;2023-04-21T04:21:38;97450.09;;;8.28;100.00
12759;BME280;20944;47.048;15.390;2023-04-21T04:24:06;97448.94;;;8.43;100.00
12759;BME280;20944;47.048;15.390;2023-04-21T04:26:36;97475.19;;;8.75;100.00
12759;BME280;20944;47.048;15.390;2023-04-21T04:29:05;97438.09;;;8.59;100.00
12759;BME280;20944;47.048;15.390;2023-04-21T04:31:36;97381.22;;;8.33;100.00
12759;BME280;20944;47.048;15.390;2023-04-21T04:34:07;97477.50;;;8.87;100.00
12759;BME280;20944;47.048;15.390;2023-04-21T04:36:35;97489.75;;;8.85;100.00
12759;BME280;20944;47.048;15.390;2023-04-21T04:39:03;97462.19;;;8.72;100.00
12759;BME280;20944;47.048;15.390;2023-04-21T04:41:34;97467.97;;;8.85;100.00
12759;BME280;20944;47.048;15.390;2023-04-21T04:44:03;97492.66;;;9.09;100.00
12759;BME280;20944;47.048;15.390;2023-04-21T04:46:32;97496.66;;;9.24;100.00
12759;BME280;20944;47.048;15.390;2023-04-21T04:49:00;97495.53;;;9.34;100.00
12759;BME280;20944;47.048;15.390;2023-04-21T04:51:30;97497.34;;;9.32;100.00
12759;BME280;20944;47.048;15.390;2023-04-21T04:53:59;97508.81;;;9.26;100.00
12759;BME280;20944;47.048;15.390;2023-04-21T04:56:29;97502.13;;;9.14;100.00
12759;BME280;20944;47.048;15.390;2023-04-21T04:58:58;97501.31;;;9.12;100.00
12759;BME280;20944;47.048;15.390;2023-04-21T05:01:26;97502.31;;;9.07;100.00
12759;BME280;20944;47.048;15.390;2023-04-21T05:03:56;97509.31;;;9.06;100.00
12759;BME280;20944;47.048;15.390;2023-04-21T05:06:25;97483.31;;;8.99;100.00
12759;BME280;20944;47.048;15.390;2023-04-21T05:08:55;97496.47;;;8.96;100.00
12759;BME280;20944;47.048;15.390;2023-04-21T05:11:24;97483.38;;;8.97;100.00
12759;BME280;20944;47.048;15.390;2023-04-21T05:13:52;97501.25;;;9.14;100.00
12759;BME280;20944;47.048;15.390;2023-04-21T05:16:20;97492.63;;;9.10;100.00
12759;BME280;20944;47.048;15.390;2023-04-21T05:18:49;97489.88;;;9.16;100.00
12759;BME280;20944;47.048;15.390;2023-04-21T05:21:23;97498.06;;;9.38;100.00
12759;BME280;20944;47.048;15.390;2023-04-21T05:23:55;97503.19;;;9.43;100.00
12759;BME280;20944;47.048;15.390;2023-04-21T05:26:25;97497.84;;;9.46;100.00
12759;BME280;20944;47.048;15.390;2023-04-21T05:28:54;97386.97;;;8.86;100.00
12759;BME280;20944;47.048;15.390;2023-04-21T05:31:24;97500.97;;;9.60;100.00
12759;BME280;20944;47.048;15.390;2023-04-21T05:33:52;97503.47;;;9.65;100.00
12759;BME280;20944;47.048;15.390;2023-04-21T05:36:21;97492.06;;;9.67;100.00
12759;BME280;20944;47.048;15.390;2023-04-21T05:38:50;97498.81;;;9.76;100.00
12759;BME280;20944;47.048;15.390;2023-04-21T05:41:22;97502.88;;;9.86;100.00
12759;BME280;20944;47.048;15.390;2023-04-21T05:43:50;97482.03;;;9.83;100.00
12759;BME280;20944;47.048;15.390;2023-04-21T05:46:18;97490.38;;;9.97;100.00
12759;BME280;20944;47.048;15.390;2023-04-21T05:48:47;97491.06;;;10.04;100.00
12759;BME280;20944;47.048;15.390;2023-04-21T05:51:15;97496.06;;;10.13;100.00
12759;BME280;20944;47.048;15.390;2023-04-21T05:53:44;97502.81;;;10.20;100.00
12759;BME280;20944;47.048;15.390;2023-04-21T05:56:13;97506.97;;;10.29;100.00
12759;BME280;20944;47.048;15.390;2023-04-21T05:58:42;97513.03;;;10.31;100.00
12759;BME280;20944;47.048;15.390;2023-04-21T06:01:11;97495.09;;;10.16;100.00
12759;BME280;20944;47.048;15.390;2023-04-21T06:03:41;97421.28;;;9.72;100.00
12759;BME280;20944;47.048;15.390;2023-04-21T06:06:10;97520.22;;;10.24;100.00
12759;BME280;20944;47.048;15.390;2023-04-21T06:08:39;97479.44;;;9.83;100.00
12759;BME280;20944;47.048;15.390;2023-04-21T06:11:07;97526.09;;;10.00;100.00
12759;BME280;20944;47.048;15.390;2023-04-21T06:13:35;97523.63;;;9.94;100.00
12759;BME280;20944;47.048;15.390;2023-04-21T06:16:08;97515.63;;;9.98;100.00
12759;BME280;20944;47.048;15.390;2023-04-21T06:18:36;97520.59;;;10.09;100.00
12759;BME280;20944;47.048;15.390;2023-04-21T06:21:08;97510.72;;;10.19;100.00
12759;BME280;20944;47.048;15.390;2023-04-21T06:23:38;97520.22;;;10.24;100.00
12759;BME280;20944;47.048;15.390;2023-04-21T06:26:07;97535.81;;;10.27;100.00
12759;BME280;20944;47.048;15.390;2023-04-21T06:28:36;97525.97;;;10.36;100.00
12759;BME280;20944;47.048;15.390;2023-04-21T06:31:05;97525.72;;;10.45;100.00
12759;BME280;20944;47.048;15.390;2023-04-21T06:33:37;97522.75;;;10.57;100.00
12759;BME280;20944;47.048;15.390;2023-04-21T06:36:06;97507.03;;;10.57;100.00
12759;BME280;20944;47.048;15.390;2023-04-21T06:38:35;97523.97;;;10.75;100.00
12759;BME280;20944;47.048;15.390;2023-04-21T06:41:06;97526.19;;;10.87;100.00
12759;BME280;20944;47.048;15.390;2023-04-21T06:43:35;97519.44;;;11.08;100.00
12759;BME280;20944;47.048;15.390;2023-04-21T06:46:04;97521.88;;;11.41;100.00
12759;BME280;20944;47.048;15.390;2023-04-21T06:48:33;97516.19;;;11.79;100.00
12759;BME280;20944;47.048;15.390;2023-04-21T06:51:03;97516.34;;;12.01;100.00
12759;BME280;20944;47.048;15.390;2023-04-21T06:53:31;97494.03;;;12.13;100.00
12759;BME280;20944;47.048;15.390;2023-04-21T06:56:00;97504.84;;;12.52;100.00
12759;BME280;20944;47.048;15.390;2023-04-21T06:58:28;97515.84;;;12.85;100.00
12759;BME280;20944;47.048;15.390;2023-04-21T07:00:56;97497.94;;;13.17;100.00
12759;BME280;20944;47.048;15.390;2023-04-21T07:03:25;97395.06;;;12.81;100.00
12759;BME280;20944;47.048;15.390;2023-04-21T07:05:53;97516.88;;;13.69;100.00
12759;BME280;20944;47.048;15.390;2023-04-21T07:08:23;97494.38;;;13.62;100.00
12759;BME280;20944;47.048;15.390;2023-04-21T07:10:52;97504.22;;;13.57;100.00
12759;BME280;20944;47.048;15.390;2023-04-21T07:13:20;97505.09;;;13.57;100.00
12759;BME280;20944;47.048;15.390;2023-04-21T07:15:49;97522.97;;;13.71;100.00
12759;BME280;20944;47.048;15.390;2023-04-21T07:18:17;97490.94;;;13.60;84.06
12759;BME280;20944;47.048;15.390;2023-04-21T07:20:45;97509.38;;;13.80;84.79
12759;BME280;20944;47.048;15.390;2023-04-21T07:23:15;97512.09;;;13.99;84.85
12759;BME280;20944;47.048;15.390;2023-04-21T07:25:45;97514.38;;;14.07;83.48
12759;BME280;20944;47.048;15.390;2023-04-21T07:28:13;97520.03;;;14.18;82.74
12759;BME280;20944;47.048;15.390;2023-04-21T07:30:42;97479.53;;;14.00;81.85
12759;BME280;20944;47.048;15.390;2023-04-21T07:33:10;97436.41;;;13.82;81.35
12759;BME280;20944;47.048;15.390;2023-04-21T07:35:39;97503.56;;;14.33;81.42
12759;BME280;20944;47.048;15.390;2023-04-21T07:38:07;97513.94;;;14.56;80.19
12759;BME280;20944;47.048;15.390;2023-04-21T07:40:36;97520.03;;;14.77;78.51
12759;BME280;20944;47.048;15.390;2023-04-21T07:43:05;97511.69;;;14.87;76.60
12759;BME280;20944;47.048;15.390;2023-04-21T07:45:34;97515.88;;;15.09;75.80
12759;BME280;20944;47.048;15.390;2023-04-21T07:48:02;97501.97;;;15.06;74.51
12759;BME280;20944;47.048;15.390;2023-04-21T07:50:32;97519.44;;;15.08;75.08
12759;BME280;20944;47.048;15.390;2023-04-21T07:53:02;97523.94;;;15.06;75.27
12759;BME280;20944;47.048;15.390;2023-04-21T07:55:31;97537.00;;;15.09;75.80
12759;BME280;20944;47.048;15.390;2023-04-21T07:58:00;97525.72;;;15.06;75.59
12759;BME280;20944;47.048;15.390;2023-04-21T08:00:30;97460.06;;;14.62;75.89
12759;BME280;20944;47.048;15.390;2023-04-21T08:02:58;97498.41;;;14.88;74.02
12759;BME280;20944;47.048;15.390;2023-04-21T08:05:27;97523.84;;;14.89;73.70
12759;BME280;20944;47.048;15.390;2023-04-21T08:08:01;97498.28;;;14.72;75.58
12759;BME280;20944;47.048;15.390;2023-04-21T08:10:30;97505.03;;;14.39;74.81
12759;BME280;20944;47.048;15.390;2023-04-21T08:12:58;97529.69;;;14.58;74.86
12759;BME280;20944;47.048;15.390;2023-04-21T08:15:27;97527.13;;;14.56;75.97
12759;BME280;20944;47.048;15.390;2023-04-21T08:17:57;97507.69;;;14.59;76.38
12759;BME280;20944;47.048;15.390;2023-04-21T08:20:26;97517.09;;;14.65;76.07
12759;BME280;20944;47.048;15.390;2023-04-21T08:22:54;97504.53;;;14.70;75.29
12759;BME280;20944;47.048;15.390;2023-04-21T08:25:22;97505.91;;;14.78;74.58
12759;BME280;20944;47.048;15.390;2023-04-21T08:27:51;97518.94;;;14.81;74.52
12759;BME280;20944;47.048;15.390;2023-04-21T08:30:19;97476.91;;;14.60;75.27
12759;BME280;20944;47.048;15.390;2023-04-21T08:32:48;97514.03;;;14.93;75.32
12759;BME280;20944;47.048;15.390;2023-04-21T08:35:18;97504.25;;;14.95;75.29
12759;BME280;20944;47.048;15.390;2023-04-21T08:37:46;97471.38;;;14.83;74.25
12759;BME280;20944;47.048;15.390;2023-04-21T08:40:17;97494.25;;;15.01;73.75
12759;BME280;20944;47.048;15.390;2023-04-21T08:42:47;97513.72;;;15.18;73.15
12759;BME280;20944;47.048;15.390;2023-04-21T08:45:15;97506.66;;;15.18;72.30
12759;BME280;20944;47.048;15.390;2023-04-21T08:47:44;97510.44;;;15.13;72.60
12759;BME280;20944;47.048;15.390;2023-04-21T08:50:13;97458.28;;;14.81;72.19
12759;BME280;20944;47.048;15.390;2023-04-21T08:52:43;97507.66;;;15.16;71.67
12759;BME280;20944;47.048;15.390;2023-04-21T08:55:12;97504.59;;;15.06;71.89
12759;BME280;20944;47.048;15.390;2023-04-21T08:57:41;97491.84;;;14.97;71.54
12759;BME280;20944;47.048;15.390;2023-04-21T09:00:10;97493.69;;;14.95;72.02
12759;BME280;20944;47.048;15.390;2023-04-21T09:02:52;97446.72;;;14.84;72.07
12759;BME280;20944;47.048;15.390;2023-04-21T09:05:29;97477.63;;;15.18;73.92
12759;BME280;20944;47.048;15.390;2023-04-21T09:08:08;97486.97;;;15.43;73.21
12759;BME280;20944;47.048;15.390;2023-04-21T09:10:43;97500.22;;;15.95;73.15
12759;BME280;20944;47.048;15.390;2023-04-21T09:13:12;97473.13;;;16.24;72.55
12759;BME280;20944;47.048;15.390;2023-04-21T09:15:41;97491.47;;;16.60;69.02
12759;BME280;20944;47.048;15.390;2023-04-21T09:18:12;97496.97;;;16.89;68.53
12759;BME280;20944;47.048;15.390;2023-04-21T09:20:41;97488.25;;;16.71;67.64
12759;BME280;20944;47.048;15.390;2023-04-21T09:23:12;97475.25;;;16.66;67.46
12759;BME280;20944;47.048;15.390;2023-04-21T09:25:41;97496.19;;;16.71;66.84
12759;BME280;20944;47.048;15.390;2023-04-21T09:28:11;97496.44;;;16.66;67.06
12759;BME280;20944;47.048;15.390;2023-04-21T09:30:41;97498.19;;;16.50;67.02
12759;BME280;20944;47.048;15.390;2023-04-21T09:33:14;97487.13;;;16.26;68.12
12759;BME280;20944;47.048;15.390;2023-04-21T09:36:00;97498.94;;;16.19;69.12
12759;BME280;20944;47.048;15.390;2023-04-21T09:38:31;97481.81;;;15.93;68.37
12759;BME280;20944;47.048;15.390;2023-04-21T09:41:00;97497.81;;;15.90;69.35
12759;BME280;20944;47.048;15.390;2023-04-21T09:43:29;97477.88;;;15.84;70.36
12759;BME280;20944;47.048;15.390;2023-04-21T09:45:59;97485.63;;;15.87;69.93
12759;BME280;20944;47.048;15.390;2023-04-21T09:48:34;97399.28;;;15.19;70.87
12759;BME280;20944;47.048;15.390;2023-04-21T09:51:04;97455.91;;;15.48;74.63
12759;BME280;20944;47.048;15.390;2023-04-21T09:53:38;97485.81;;;15.48;77.08
12759;BME280;20944;47.048;15.390;2023-04-21T09:56:10;97477.13;;;15.46;78.08
12759;BME280;20944;47.048;15.390;2023-04-21T09:58:43;97482.78;;;15.56;78.46
12759;BME280;20944;47.048;15.390;2023-04-21T10:01:13;97477.69;;;15.87;78.06
12759;BME280;20944;47.048;15.390;2023-04-21T10:03:43;97466.13;;;16.23;77.53
12759;BME280;20944;47.048;15.390;2023-04-21T10:06:13;97478.25;;;16.60;71.25
12759;BME280;20944;47.048;15.390;2023-04-21T10:08:43;97444.47;;;16.81;70.92
12759;BME280;20944;47.048;15.390;2023-04-21T10:11:14;97475.19;;;17.15;68.37
12759;BME280;20944;47.048;15.390;2023-04-21T10:13:42;97477.06;;;17.13;71.70
12759;BME280;20944;47.048;15.390;2023-04-21T10:16:11;97473.31;;;17.17;68.91
12759;BME280;20944;47.048;15.390;2023-04-21T10:18:45;97470.13;;;17.26;68.66
12759;BME280;20944;47.048;15.390;2023-04-21T10:21:16;97448.84;;;17.44;65.28
12759;BME280;20944;47.048;15.390;2023-04-21T10:23:50;97460.75;;;17.67;64.12
12759;BME280;20944;47.048;15.390;2023-04-21T10:26:21;97461.72;;;17.50;61.73
12759;BME280;20944;47.048;15.390;2023-04-21T10:28:55;97468.53;;;17.24;64.47
12759;BME280;20944;47.048;15.390;2023-04-21T10:31:31;97460.13;;;17.32;63.08
12759;BME280;20944;47.048;15.390;2023-04-21T10:34:20;97451.09;;;17.36;62.16
12759;BME280;20944;47.048;15.390;2023-04-21T10:37:10;97450.78;;;17.56;60.95
12759;BME280;20944;47.048;15.390;2023-04-21T10:39:45;97438.53;;;17.53;59.14
12759;BME280;20944;47.048;15.390;2023-04-21T10:42:19;97445.22;;;17.61;61.71
12759;BME280;20944;47.048;15.390;2023-04-21T10:45:00;97450.94;;;17.83;60.00
12759;BME280;20944;47.048;15.390;2023-04-21T10:47:35;97451.25;;;17.63;59.86
12759;BME280;20944;47.048;15.390;2023-04-21T10:50:13;97461.69;;;17.36;61.29
12759;BME280;20944;47.048;15.390;2023-04-21T10:52:49;97363.38;;;16.80;60.88
12759;BME280;20944;47.048;15.390;2023-04-21T10:55:20;97454.50;;;17.38;63.29
12759;BME280;20944;47.048;15.390;2023-04-21T10:57:49;97445.69;;;17.37;61.72
12759;BME280;20944;47.048;15.390;2023-04-21T11:00:20;97445.34;;;17.43;61.33
12759;BME280;20944;47.048;15.390;2023-04-21T11:02:56;97423.25;;;17.29;64.49
12759;BME280;20944;47.048;15.390;2023-04-21T11:05:30;97424.38;;;17.09;63.34
12759;BME280;20944;47.048;15.390;2023-04-21T11:08:11;97427.41;;;16.87;61.82
12759;BME280;20944;47.048;15.390;2023-04-21T11:10:49;97405.78;;;16.63;62.25
12759;BME280;20944;47.048;15.390;2023-04-21T11:13:20;97444.56;;;16.80;65.55
12759;BME280;20944;47.048;15.390;2023-04-21T11:15:59;97446.78;;;16.87;61.72
12759;BME280;20944;47.048;15.390;2023-04-21T11:18:36;97404.44;;;16.87;62.89
12759;BME280;20944;47.048;15.390;2023-04-21T11:21:10;97424.66;;;17.04;61.27
12759;BME280;20944;47.048;15.390;2023-04-21T11:23:39;97430.63;;;17.08;61.43
12759;BME280;20944;47.048;15.390;2023-04-21T11:26:10;97414.22;;;17.01;60.00
12759;BME280;20944;47.048;15.390;2023-04-21T11:28:39;97398.53;;;16.98;62.40
12759;BME280;20944;47.048;15.390;2023-04-21T11:31:08;97421.38;;;17.15;60.87
12759;BME280;20944;47.048;15.390;2023-04-21T11:33:37;97408.56;;;17.23;62.51
12759;BME280;20944;47.048;15.390;2023-04-21T11:36:06;97427.84;;;17.25;60.01
12759;BME280;20944;47.048;15.390;2023-04-21T11:38:38;97423.97;;;17.16;60.62
12759;BME280;20944;47.048;15.390;2023-04-21T11:41:10;97410.28;;;17.08;61.42
12759;BME280;20944;47.048;15.390;2023-04-21T11:43:38;97406.53;;;17.12;63.24
12759;BME280;20944;47.048;15.390;2023-04-21T11:46:16;97420.47;;;17.00;61.26
12759;BME280;20944;47.048;15.390;2023-04-21T11:48:44;97403.03;;;16.64;61.42
12759;BME280;20944;47.048;15.390;2023-04-21T11:51:17;97417.06;;;16.66;63.30
12759;BME280;20944;47.048;15.390;2023-04-21T11:53:48;97412.66;;;16.65;62.52
12759;BME280;20944;47.048;15.390;2023-04-21T11:56:20;97413.72;;;16.63;62.49
12759;BME280;20944;47.048;15.390;2023-04-21T11:58:49;97399.78;;;16.59;63.51
12759;BME280;20944;47.048;15.390;2023-04-21T12:01:19;97405.06;;;16.59;63.25
12759;BME280;20944;47.048;15.390;2023-04-21T12:03:52;97332.63;;;16.14;62.14
12759;BME280;20944;47.048;15.390;2023-04-21T12:06:22;97336.31;;;16.28;62.89
12759;BME280;20944;47.048;15.390;2023-04-21T12:08:55;97401.28;;;16.81;63.75
12759;BME280;20944;47.048;15.390;2023-04-21T12:11:26;97398.41;;;17.15;63.24
12759;BME280;20944;47.048;15.390;2023-04-21T12:13:56;97404.19;;;17.52;63.47
12759;BME280;20944;47.048;15.390;2023-04-21T12:16:25;97366.31;;;17.36;59.31
12759;BME280;20944;47.048;15.390;2023-04-21T12:18:55;97401.31;;;17.41;59.33
12759;BME280;20944;47.048;15.390;2023-04-21T12:21:26;97406.78;;;17.23;61.84
12759;BME280;20944;47.048;15.390;2023-04-21T12:23:56;97388.75;;;17.14;62.98
12759;BME280;20944;47.048;15.390;2023-04-21T12:26:25;97399.78;;;17.22;61.42
12759;BME280;20944;47.048;15.390;2023-04-21T12:28:54;97401.03;;;17.15;61.25
12759;BME280;20944;47.048;15.390;2023-04-21T12:31:22;97372.06;;;16.66;62.65
12759;BME280;20944;47.048;15.390;2023-04-21T12:33:51;97401.06;;;16.52;64.78
12759;BME280;20944;47.048;15.390;2023-04-21T12:36:20;97401.66;;;16.26;65.88
12759;BME280;20944;47.048;15.390;2023-04-21T12:38:48;97358.25;;;15.81;67.04
12759;BME280;20944;47.048;15.390;2023-04-21T12:41:17;97399.19;;;15.89;68.23
12759;BME280;20944;47.048;15.390;2023-04-21T12:43:47;97394.84;;;15.71;71.37
12759;BME280;20944;47.048;15.390;2023-04-21T12:46:15;97403.25;;;15.45;73.41
12759;BME280;20944;47.048;15.390;2023-04-21T12:48:44;97409.94;;;15.34;73.94
12759;BME280;20944;47.048;15.390;2023-04-21T12:51:12;97426.94;;;15.46;75.92
12759;BME280;20944;47.048;15.390;2023-04-21T12:53:40;97431.53;;;15.60;72.63
12759;BME280;20944;47.048;15.390;2023-04-21T12:56:09;97435.41;;;15.70;69.12
12759;BME280;20944;47.048;15.390;2023-04-21T12:58:37;97421.53;;;15.67;70.09
12759;BME280;20944;47.048;15.390;2023-04-21T13:01:07;97418.81;;;15.68;68.42